Airfield :
LOGIN :

Register | Disclaimer

   EN    FR    IT 

 










Legend :    VFR   Marginal VFR   IFR   Intensive IFR   Very Intensive IFR
Visi :
Ceiling :
>= 8 km
>= 3000ft
5 to 8 km
1000 to 3000 ft
1500m to 5 km
500 to 1000 ft
800 to 1500m
200 to 500 ft
< 800m
< 200 ft
Symbols :   Thunderstorms  Fog  Heavy snow  Heavy precipitations  Wind > 20 kt
SIGMETs :     Misc.  Thunderstorms  Icing  Turbulence  Mountain Waves  Volcanic Ashes







- Airport Elevation : 219 ft
- IATA code : DNR
- Download approach charts


LFRD - Dinard

EXPIRED METARs :
  • 241430Z AUTO 27009KT 240V310 9999 FEW048 OVC056 24/13 Q1017 NOSIG
  • 241400Z AUTO 23010KT 200V260 9999 FEW049 OVC056 24/13 Q1017 BECMG 34010KT
  • 241330Z AUTO 25010KT CAVOK 24/12 Q1018 BECMG 34010KT
  • 241300Z AUTO 23011KT 180V260 9999 BKN048 25/12 Q1018 BECMG 34010KT
  • 241230Z AUTO 21012KT 180V240 9999 SCT046 SCT052 24/12 Q1018 BECMG 34010KT
  • 241200Z AUTO 23011KT 200V260 9999 BKN041 24/13 Q1018 BECMG 34010KT

Expired Forecast.
ATIS : +33 2 99 16 81 50
No reported NOTAMs for that airfield.



MET'MAP, your aeronautical weather chart ! - Copyright ORBIFLY December 2007 - Disclaimer

ORBIFLY MET'MAP TEAM :

Programming & Development : Alexandra Zaïnal
Concept & Development : Baudouin d'Aumeries
Co-Development & Prog : Marc-Olivier Méhu
Technical & hardware support : Manuel Goepfert

Contact : metmap@orbifly.com




SOURCES & CREDITS :

   NOAA